Time;durP1;ratioP1;P1;durP2;ratioP2;P2;SDS_P1;SDS_P2;PMS_P1;PMS_P2;Temp;Humidity;BMP_temperature;BMP_pressure;BME280_temperature;BME280_humidity;BME280_pressure;Samples;Min_cycle;Max_cycle;Signal;HPM_P1;HPM_P2
2022/09/25 00:01:07;;;;;;;10.57;2.97;;;;;;;11.29;98.18;101480.28;5083856;28;20035;-57
2022/09/25 00:03:33;;;;;;;13.43;3.00;;;;;;;11.26;96.83;101485.91;5067828;28;20094;-58
2022/09/25 00:06:07;;;;;;;13.68;3.10;;;;;;;11.20;97.15;101491.81;5085257;28;20048;-57
2022/09/25 00:08:34;;;;;;;11.98;3.08;;;;;;;11.16;97.19;101492.09;5081540;28;20034;-57
2022/09/25 00:11:05;;;;;;;9.13;2.95;;;;;;;11.14;97.06;101504.69;5087002;28;20041;-57
2022/09/25 00:13:30;;;;;;;12.32;3.33;;;;;;;11.12;97.66;101504.03;5076485;28;20448;-60
2022/09/25 00:15:56;;;;;;;14.85;3.40;;;;;;;11.10;97.36;101503.31;5071912;28;20071;-58
2022/09/25 00:21:13;;;;;;;11.68;3.08;;;;;;;11.06;98.05;101507.25;5089794;28;20055;-58
2022/09/25 00:23:41;;;;;;;12.52;3.20;;;;;;;11.08;97.74;101515.91;5073265;28;20618;-60
2022/09/25 00:26:07;;;;;;;10.32;2.97;;;;;;;11.03;98.03;101512.84;5071721;28;20085;-58
2022/09/25 00:28:37;;;;;;;9.25;3.17;;;;;;;11.00;98.19;101510.50;5078564;28;20531;-57
2022/09/25 00:31:05;;;;;;;11.15;3.17;;;;;;;10.98;98.30;101505.34;5088996;28;20046;-59
2022/09/25 00:33:31;;;;;;;13.07;3.60;;;;;;;10.95;98.27;101507.47;5083523;28;20118;-58
2022/09/25 00:36:09;;;;;;;14.38;3.90;;;;;;;10.92;97.90;101505.94;5069273;28;20495;-59
2022/09/25 00:38:36;;;;;;;11.88;3.60;;;;;;;10.84;98.37;101504.00;5067325;28;20134;-58
2022/09/25 00:41:02;;;;;;;10.25;3.55;;;;;;;10.88;98.37;101499.25;5081667;28;20043;-60
2022/09/25 00:43:40;;;;;;;10.88;3.85;;;;;;;10.89;99.22;101501.75;5069590;28;20056;-59
2022/09/25 00:46:30;;;;;;;15.50;3.70;;;;;;;10.97;98.81;101502.81;5073792;28;20048;-60
2022/09/25 00:49:08;;;;;;;8.68;3.25;;;;;;;10.96;99.29;101501.16;5082730;28;20040;-60
2022/09/25 00:51:41;;;;;;;10.02;3.50;;;;;;;10.92;98.09;101503.28;5087460;28;20044;-60
2022/09/25 00:54:14;;;;;;;11.10;3.40;;;;;;;10.90;98.33;101503.41;5081163;28;20051;-58
2022/09/25 00:56:42;;;;;;;17.60;3.50;;;;;;;10.81;97.73;101501.63;5071159;28;21042;-58
2022/09/25 00:59:13;;;;;;;9.50;3.10;;;;;;;10.84;97.50;101509.31;5074185;28;20075;-58
2022/09/25 01:01:38;;;;;;;9.60;3.50;;;;;;;10.85;97.92;101502.19;5090677;28;20076;-57
2022/09/25 01:04:05;;;;;;;13.27;3.40;;;;;;;10.80;98.02;101502.63;5074201;28;20471;-58
2022/09/25 01:06:31;;;;;;;7.57;3.00;;;;;;;10.78;98.13;101504.59;5069637;28;20028;-58
2022/09/25 01:08:57;;;;;;;14.45;3.90;;;;;;;10.74;98.25;101506.72;5078889;28;20032;-58
2022/09/25 01:11:23;;;;;;;12.45;3.58;;;;;;;10.71;97.67;101508.81;5086730;28;20047;-58
2022/09/25 01:13:49;;;;;;;10.88;3.17;;;;;;;10.71;98.08;101508.81;5065289;28;20037;-58
2022/09/25 01:16:15;;;;;;;8.73;3.10;;;;;;;10.73;98.80;101506.84;5075736;28;20032;-57
2022/09/25 01:19:02;;;;;;;9.85;3.40;;;;;;;10.76;98.17;101512.69;5079246;28;20115;-57
2022/09/25 01:21:51;;;;;;;10.95;3.40;;;;;;;10.72;98.61;101513.13;5085631;28;20050;-57
2022/09/25 01:24:50;;;;;;;14.40;3.60;;;;;;;10.75;98.55;101512.84;5064692;28;20070;-59
2022/09/25 01:27:31;;;;;;;12.75;3.63;;;;;;;10.64;98.21;101513.88;5081919;28;20028;-58
2022/09/25 01:30:18;;;;;;;9.77;3.13;;;;;;;10.67;98.49;101502.13;5075789;28;20032;-57
2022/09/25 01:33:12;;;;;;;9.55;3.20;;;;;;;10.63;98.64;101507.75;5086404;28;20036;-58
2022/09/25 01:35:48;;;;;;;15.63;3.70;;;;;;;10.62;98.80;101514.00;5067649;28;20028;-60
2022/09/25 01:38:14;;;;;;;10.70;3.10;;;;;;;10.58;97.78;101520.59;5067437;28;20036;-59
2022/09/25 01:41:07;;;;;;;11.00;3.20;;;;;;;10.57;98.21;101513.59;5085397;28;20531;-56
2022/09/25 01:43:40;;;;;;;8.90;3.08;;;;;;;10.48;98.18;101519.78;5085335;28;20032;-58
2022/09/25 01:46:10;;;;;;;10.20;2.97;;;;;;;10.43;97.84;101524.69;5066078;28;20134;-57
2022/09/25 01:48:39;;;;;;;8.10;3.00;;;;;;;10.32;97.91;101518.53;5065199;28;20044;-58
2022/09/25 01:51:14;;;;;;;10.57;3.15;;;;;;;10.34;98.80;101524.53;5076972;28;20062;-58
2022/09/25 01:53:45;;;;;;;9.70;3.28;;;;;;;10.31;98.85;101524.81;5065227;28;20032;-58
2022/09/25 01:56:21;;;;;;;10.15;3.10;;;;;;;10.35;98.83;101525.34;5084047;28;20135;-58
2022/09/25 01:58:56;;;;;;;11.05;3.08;;;;;;;10.30;98.37;101525.78;5064793;28;20039;-58
2022/09/25 02:01:30;;;;;;;12.07;3.20;;;;;;;10.30;98.43;101524.94;5073956;28;20050;-59
2022/09/25 02:04:04;;;;;;;12.60;3.33;;;;;;;10.30;99.15;101528.44;5074945;28;20082;-57
2022/09/25 02:06:31;;;;;;;11.98;3.13;;;;;;;10.26;99.41;101515.63;5077495;28;20028;-58
2022/09/25 02:09:07;;;;;;;11.23;2.97;;;;;;;10.20;98.40;101522.31;5079935;28;20055;-57
2022/09/25 02:11:38;;;;;;;9.23;3.20;;;;;;;10.22;98.79;101525.69;5085218;28;20024;-58
2022/09/25 02:14:10;;;;;;;10.93;3.42;;;;;;;10.14;98.60;101514.94;5076823;28;20027;-57
2022/09/25 02:16:43;;;;;;;8.52;2.90;;;;;;;10.15;98.03;101520.09;5085482;28;20114;-58
2022/09/25 02:22:09;;;;;;;11.73;2.97;;;;;;;10.13;97.32;101510.63;5082828;28;20526;-57
2022/09/25 02:24:46;;;;;;;11.63;2.67;;;;;;;10.11;97.69;101512.56;5069549;28;20039;-57
2022/09/25 02:27:13;;;;;;;9.43;3.00;;;;;;;10.09;97.33;101515.38;5069293;28;20021;-60
2022/09/25 02:29:39;;;;;;;8.45;3.20;;;;;;;10.01;97.25;101513.41;5077557;28;20032;-58
2022/09/25 02:32:13;;;;;;;5.90;2.80;;;;;;;10.04;97.42;101507.84;5081031;28;20032;-59
2022/09/25 02:34:39;;;;;;;6.20;3.05;;;;;;;10.03;97.50;101515.94;5072235;28;20063;-58
2022/09/25 02:37:13;;;;;;;10.45;3.10;;;;;;;9.97;97.30;101517.34;5070154;28;20017;-57
2022/09/25 02:39:40;;;;;;;9.27;3.00;;;;;;;9.96;97.77;101520.94;5068633;28;20414;-58
2022/09/25 02:42:15;;;;;;;10.00;3.13;;;;;;;10.00;97.58;101521.50;5096924;28;20056;-60
2022/09/25 02:45:04;;;;;;;11.10;3.22;;;;;;;9.99;98.71;101520.69;5087356;28;20973;-58
2022/09/25 02:47:51;;;;;;;8.98;3.35;;;;;;;9.91;99.13;101520.53;5072286;28;20051;-60
2022/09/25 02:50:50;;;;;;;8.05;3.30;;;;;;;9.95;98.89;101519.28;5074462;28;20066;-59
2022/09/25 02:53:36;;;;;;;9.27;3.30;;;;;;;9.90;99.15;101516.22;5082038;28;20032;-57
2022/09/25 02:56:09;;;;;;;9.48;3.40;;;;;;;9.83;99.30;101510.66;5079431;28;20032;-59
2022/09/25 02:58:45;;;;;;;;;;;;;;;9.97;98.48;101506.75;5077068;28;20032;-58
2022/09/25 03:01:14;;;;;;;10.18;3.08;;;;;;;9.82;97.86;101493.91;5090823;28;19919;-58
2022/09/25 03:03:41;;;;;;;10.05;3.10;;;;;;;9.73;97.29;101500.06;5080097;28;20032;-57
2022/09/25 03:06:07;;;;;;;8.80;3.20;;;;;;;9.71;97.98;101499.34;5079567;28;20032;-58
2022/09/25 03:08:36;;;;;;;11.48;3.47;;;;;;;9.71;97.40;101507.28;5067887;28;20063;-58
2022/09/25 03:11:04;;;;;;;7.57;3.15;;;;;;;9.69;97.18;101509.25;5083836;28;20566;-57
2022/09/25 03:13:32;;;;;;;8.55;3.10;;;;;;;9.72;97.14;101503.66;5067405;28;20517;-58
2022/09/25 03:16:07;;;;;;;11.93;3.28;;;;;;;9.60;97.80;101504.78;5078778;28;20051;-58
2022/09/25 03:18:32;;;;;;;9.02;3.38;;;;;;;9.62;97.42;101501.00;5073242;28;20109;-58
2022/09/25 03:20:58;;;;;;;7.18;3.33;;;;;;;9.58;97.41;101510.22;5081780;28;20075;-57
2022/09/25 03:23:23;;;;;;;11.55;3.60;;;;;;;9.53;96.49;101510.63;5078200;28;20032;-58
2022/09/25 03:25:52;;;;;;;9.70;3.60;;;;;;;9.52;96.87;101514.25;5078890;28;20086;-57
2022/09/25 03:28:18;;;;;;;9.82;3.58;;;;;;;9.50;98.94;101510.91;5077215;28;20051;-57
2022/09/25 03:30:53;;;;;;;9.32;3.47;;;;;;;9.44;97.81;101506.16;5091839;28;20047;-58
2022/09/25 03:33:19;;;;;;;10.52;3.80;;;;;;;9.42;98.23;101513.41;5068325;28;20040;-58
2022/09/25 03:35:44;;;;;;;8.10;4.40;;;;;;;9.43;98.65;101515.09;5068126;28;20040;-58
2022/09/25 03:38:11;;;;;;;13.05;4.70;;;;;;;9.40;99.23;101516.19;5070282;28;20463;-58
2022/09/25 03:40:36;;;;;;;9.80;4.30;;;;;;;9.34;98.78;101506.16;5091899;28;20032;-58
2022/09/25 03:43:02;;;;;;;11.27;4.15;;;;;;;9.38;98.01;101501.44;5089898;28;20058;-60
2022/09/25 03:45:27;;;;;;;14.52;4.38;;;;;;;9.32;98.14;101500.16;5066557;28;20047;-58
2022/09/25 03:47:53;;;;;;;7.93;4.07;;;;;;;9.33;97.20;101506.28;5067605;28;20113;-60
2022/09/25 03:50:18;;;;;;;8.05;4.25;;;;;;;9.31;97.33;101506.41;5072121;28;20027;-58
2022/09/25 03:52:43;;;;;;;9.75;5.00;;;;;;;9.28;97.80;101507.53;5075516;28;20114;-57
2022/09/25 03:55:10;;;;;;;10.98;4.80;;;;;;;9.23;97.49;101509.75;5078306;28;20395;-58
2022/09/25 03:57:36;;;;;;;10.90;5.30;;;;;;;9.19;97.19;101513.66;5066802;28;20028;-59
2022/09/25 04:00:02;;;;;;;9.98;4.90;;;;;;;9.15;97.84;101509.59;5082239;28;20038;-60
2022/09/25 04:02:28;;;;;;;17.92;6.75;;;;;;;9.11;98.13;101510.81;5067129;28;20035;-58
2022/09/25 04:04:54;;;;;;;15.07;5.72;;;;;;;9.12;97.89;101517.78;5070074;28;20036;-58
2022/09/25 04:07:20;;;;;;;16.42;7.00;;;;;;;9.01;98.74;101509.00;5066407;28;20036;-57
2022/09/25 04:09:46;;;;;;;12.90;7.13;;;;;;;9.06;99.65;101505.09;5069352;28;20036;-59
2022/09/25 04:12:11;;;;;;;13.40;7.15;;;;;;;9.09;99.96;101507.50;5103153;28;20956;-57
2022/09/25 04:14:37;;;;;;;16.95;8.07;;;;;;;9.08;100.00;101511.13;5074035;28;20033;-58
2022/09/25 04:17:02;;;;;;;12.45;6.68;;;;;;;9.04;99.19;101499.13;5072230;28;20028;-58
2022/09/25 04:19:28;;;;;;;15.20;6.70;;;;;;;9.02;98.95;101502.75;5078288;28;20040;-58
2022/09/25 04:21:53;;;;;;;12.38;7.47;;;;;;;9.02;99.12;101507.19;5076550;28;20494;-56
2022/09/25 04:27:04;;;;;;;11.35;7.15;;;;;;;8.96;98.00;101503.28;5068539;28;20048;-58
2022/09/25 04:29:30;;;;;;;11.65;7.25;;;;;;;8.97;97.92;101499.66;5068314;28;20522;-60
2022/09/25 04:34:40;;;;;;;11.65;7.07;;;;;;;8.94;97.61;101505.19;5067184;28;20058;-58
2022/09/25 04:37:06;;;;;;;15.15;7.65;;;;;;;8.90;97.65;101505.59;5078230;28;20036;-57
2022/09/25 04:39:31;;;;;;;13.52;8.05;;;;;;;8.93;98.00;101514.13;5074688;28;20024;-59
2022/09/25 04:41:56;;;;;;;13.55;8.18;;;;;;;8.86;97.48;101508.53;5096260;28;20039;-58
2022/09/25 04:44:22;;;;;;;16.23;8.40;;;;;;;8.85;98.20;101508.66;5071932;28;20036;-57
2022/09/25 04:46:47;;;;;;;13.57;8.23;;;;;;;8.83;97.45;101505.31;5065588;28;20424;-60
2022/09/25 04:49:12;;;;;;;14.38;8.30;;;;;;;8.82;97.66;101500.97;5067170;28;20043;-59
2022/09/25 04:51:38;;;;;;;16.25;8.45;;;;;;;8.80;97.45;101498.50;5087827;28;20047;-57
2022/09/25 04:54:03;;;;;;;17.75;9.18;;;;;;;8.78;97.19;101502.25;5071822;28;20055;-56
2022/09/25 04:56:28;;;;;;;13.50;8.60;;;;;;;8.74;97.61;101497.19;5084192;28;20032;-61
2022/09/25 04:58:54;;;;;;;15.45;8.70;;;;;;;8.74;97.06;101497.19;5069677;28;20526;-57
2022/09/25 05:01:20;;;;;;;13.30;8.80;;;;;;;8.69;97.48;101496.75;5074693;28;20036;-57
2022/09/25 05:03:52;;;;;;;15.50;8.52;;;;;;;8.67;97.32;101498.72;5074281;28;20044;-58
2022/09/25 05:06:18;;;;;;;14.60;8.65;;;;;;;8.68;96.91;101497.75;5077229;28;20794;-58
2022/09/25 05:08:43;;;;;;;12.82;8.23;;;;;;;8.68;97.01;101495.09;5049634;28;20040;-61
2022/09/25 05:11:08;;;;;;;15.63;8.52;;;;;;;8.64;96.69;101493.72;5072944;28;20123;-59
2022/09/25 05:13:34;;;;;;;12.88;8.13;;;;;;;8.61;97.10;101493.97;5076414;28;20029;-58
2022/09/25 05:15:59;;;;;;;15.65;8.82;;;;;;;8.60;97.15;101492.28;5077698;28;20526;-60
2022/09/25 05:18:25;;;;;;;17.98;9.07;;;;;;;8.52;96.77;101494.72;5085258;28;20032;-59
2022/09/25 05:20:55;;;;;;;15.77;8.80;;;;;;;8.56;96.87;101485.56;5077516;28;20030;-58
2022/09/25 05:23:22;;;;;;;14.77;8.95;;;;;;;8.54;96.68;101491.00;5076424;28;20036;-59
2022/09/25 05:25:57;;;;;;;14.73;8.68;;;;;;;8.48;97.08;101500.25;5080427;28;20437;-58
2022/09/25 05:28:23;;;;;;;15.35;8.90;;;;;;;8.37;96.67;101487.13;5074969;28;20036;-58
2022/09/25 05:30:49;;;;;;;14.35;9.20;;;;;;;8.41;96.77;101483.25;5075970;28;20736;-58
2022/09/25 05:33:14;;;;;;;14.25;8.93;;;;;;;8.46;96.84;101491.63;5075694;28;20039;-58
2022/09/25 05:35:41;;;;;;;13.00;8.68;;;;;;;8.47;96.71;101488.03;5077761;28;20468;-61
2022/09/25 05:38:07;;;;;;;17.83;9.35;;;;;;;8.39;97.03;101482.53;5070549;28;20061;-57
2022/09/25 05:40:33;;;;;;;14.68;8.52;;;;;;;8.37;97.06;101487.13;5075417;28;20024;-57
2022/09/25 05:42:59;;;;;;;16.17;9.70;;;;;;;8.42;97.62;101486.72;5071676;28;20388;-58
2022/09/25 05:45:24;;;;;;;17.33;8.70;;;;;;;8.39;97.08;101490.47;5070364;28;20052;-57
2022/09/25 05:48:19;;;;;;;16.75;9.23;;;;;;;8.45;97.16;101492.59;5064250;28;20507;-60
2022/09/25 05:50:50;;;;;;;14.93;9.23;;;;;;;8.38;96.81;101496.72;5055210;28;20040;-57
2022/09/25 05:53:15;;;;;;;15.20;9.38;;;;;;;8.40;97.39;101492.16;5067910;28;20149;-58
2022/09/25 05:55:40;;;;;;;17.92;10.05;;;;;;;8.44;98.08;101501.47;5061147;28;20479;-57
2022/09/25 05:58:05;;;;;;;14.95;9.30;;;;;;;8.46;98.13;101502.22;5069145;28;20036;-56
2022/09/25 06:00:31;;;;;;;15.05;9.57;;;;;;;8.41;97.34;101504.41;5071473;28;20020;-59
2022/09/25 06:02:58;;;;;;;17.55;9.32;;;;;;;8.40;98.40;101513.31;5065110;28;20431;-57
2022/09/25 06:05:23;;;;;;;21.23;10.45;;;;;;;8.40;97.86;101508.03;5067723;28;20696;-57
2022/09/25 06:07:53;;;;;;;18.73;9.88;;;;;;;8.41;98.30;101512.34;5064959;28;20040;-58
2022/09/25 06:10:18;;;;;;;17.25;9.77;;;;;;;8.38;98.53;101504.66;5070480;28;20475;-55
2022/09/25 06:12:44;;;;;;;14.80;9.50;;;;;;;8.48;98.60;101510.00;5063460;28;20039;-58
2022/09/25 06:15:09;;;;;;;16.55;9.75;;;;;;;8.50;98.63;101507.22;5070873;28;20032;-57
2022/09/25 06:17:34;;;;;;;16.60;9.85;;;;;;;8.48;97.83;101510.84;5066645;28;20024;-58
2022/09/25 06:20:00;;;;;;;16.23;9.75;;;;;;;8.55;98.44;101507.69;5065431;28;20078;-59
2022/09/25 06:22:25;;;;;;;14.20;9.27;;;;;;;8.57;98.44;101503.09;5069319;28;20509;-57
2022/09/25 06:24:50;;;;;;;16.98;10.02;;;;;;;8.54;98.51;101506.03;5062151;28;20499;-59
2022/09/25 06:27:16;;;;;;;15.10;9.73;;;;;;;8.51;98.80;101506.25;5059787;28;20531;-59
2022/09/25 06:29:41;;;;;;;15.30;9.77;;;;;;;8.58;98.82;101504.78;5066068;28;20043;-56
2022/09/25 06:32:06;;;;;;;16.33;10.02;;;;;;;8.58;98.67;101507.41;5066314;28;20603;-57
2022/09/25 06:34:31;;;;;;;17.17;9.93;;;;;;;8.65;99.05;101511.25;5062292;28;20048;-57
2022/09/25 06:36:59;;;;;;;19.08;10.52;;;;;;;8.65;99.28;101505.94;5058042;28;20077;-59
2022/09/25 06:39:24;;;;;;;15.95;10.55;;;;;;;8.69;100.00;101506.50;5063719;28;20395;-57
2022/09/25 06:41:51;;;;;;;17.00;10.88;;;;;;;8.73;100.00;101508.75;5058190;28;21793;-59
2022/09/25 06:44:17;;;;;;;15.20;10.32;;;;;;;8.74;100.00;101504.31;5060332;28;20589;-57
2022/09/25 06:46:43;;;;;;;19.98;11.20;;;;;;;8.74;100.00;101499.84;5053761;28;20669;-57
2022/09/25 06:49:12;;;;;;;20.35;11.82;;;;;;;8.79;100.00;101506.56;5055433;28;20226;-60
2022/09/25 06:51:38;;;;;;;18.25;11.48;;;;;;;8.89;100.00;101515.38;5054323;28;20032;-58
2022/09/25 06:54:03;;;;;;;17.05;11.93;;;;;;;8.92;100.00;101517.72;5058485;28;20403;-57
2022/09/25 06:56:28;;;;;;;18.27;11.90;;;;;;;8.94;100.00;101521.06;5043819;28;20029;-59
2022/09/25 06:58:54;;;;;;;19.23;11.90;;;;;;;9.02;100.00;101523.91;5068206;28;20059;-59
2022/09/25 07:01:19;;;;;;;19.67;11.77;;;;;;;9.07;100.00;101520.03;5065445;28;20335;-59
2022/09/25 07:03:44;;;;;;;17.85;11.48;;;;;;;9.13;100.00;101524.78;5066616;28;20541;-58
2022/09/25 07:06:15;;;;;;;22.50;12.38;;;;;;;9.17;100.00;101523.50;5063002;28;20039;-57
2022/09/25 07:08:42;;;;;;;18.67;11.57;;;;;;;9.19;100.00;101518.94;5065157;28;20036;-58
2022/09/25 07:11:12;;;;;;;20.20;11.93;;;;;;;9.27;100.00;101527.03;5066765;28;20032;-57
2022/09/25 07:13:37;;;;;;;18.27;11.82;;;;;;;9.33;100.00;101530.13;5064042;28;20540;-59
2022/09/25 07:16:05;;;;;;;18.42;11.82;;;;;;;9.38;100.00;101520.78;5073025;28;20038;-57
2022/09/25 07:18:31;;;;;;;20.35;11.88;;;;;;;9.46;100.00;101524.53;5067007;28;20024;-57
2022/09/25 07:21:04;;;;;;;19.50;12.07;;;;;;;9.52;100.00;101524.03;5061383;28;20059;-58
2022/09/25 07:23:32;;;;;;;17.70;11.10;;;;;;;9.60;100.00;101525.97;5063312;28;20038;-57
2022/09/25 07:26:06;;;;;;;19.00;11.00;;;;;;;9.61;100.00;101528.47;5070288;28;20055;-57
2022/09/25 07:28:32;;;;;;;17.13;10.75;;;;;;;9.72;100.00;101530.16;5064623;28;20445;-57
2022/09/25 07:30:57;;;;;;;18.15;10.25;;;;;;;9.78;100.00;101536.72;5073878;28;20032;-58
2022/09/25 07:33:23;;;;;;;16.73;10.65;;;;;;;9.82;100.00;101533.63;5065410;28;20028;-56
2022/09/25 07:35:50;;;;;;;19.30;10.60;;;;;;;9.91;100.00;101534.63;5062677;28;20079;-57
2022/09/25 07:38:15;;;;;;;16.83;9.63;;;;;;;9.98;100.00;101540.19;5062126;28;20526;-58
2022/09/25 07:40:41;;;;;;;18.60;10.60;;;;;;;10.05;100.00;101536.00;5070920;28;20036;-57
2022/09/25 07:43:06;;;;;;;17.80;10.65;;;;;;;10.13;100.00;101531.81;5063710;28;20349;-58
2022/09/25 07:45:32;;;;;;;19.17;9.25;;;;;;;10.19;100.00;101532.09;5068591;28;20527;-59
2022/09/25 07:47:59;;;;;;;16.38;8.88;;;;;;;10.22;100.00;101538.94;5068359;28;20044;-58
2022/09/25 07:50:25;;;;;;;13.40;8.10;;;;;;;10.27;100.00;101534.00;5072575;28;20490;-57
2022/09/25 07:52:51;;;;;;;15.70;8.32;;;;;;;10.33;100.00;101533.47;5067342;28;20048;-57
2022/09/25 07:55:17;;;;;;;14.05;7.72;;;;;;;10.45;100.00;101535.97;5070943;28;20123;-59
2022/09/25 07:57:42;;;;;;;11.70;7.05;;;;;;;10.48;100.00;101531.22;5067680;28;20410;-57
2022/09/25 08:00:09;;;;;;;14.80;7.00;;;;;;;10.56;100.00;101532.31;5065308;28;21221;-57
2022/09/25 08:02:34;;;;;;;13.93;7.22;;;;;;;10.66;100.00;101526.97;5070094;28;20115;-57
2022/09/25 08:05:00;;;;;;;13.95;7.00;;;;;;;10.70;100.00;101533.69;5065409;28;20039;-57
2022/09/25 08:07:27;;;;;;;15.48;7.40;;;;;;;10.76;100.00;101522.50;5062625;28;20036;-57
2022/09/25 08:09:52;;;;;;;12.95;5.78;;;;;;;10.77;100.00;101530.28;5067343;28;20117;-57
2022/09/25 08:12:18;;;;;;;11.32;5.93;;;;;;;10.88;99.27;101534.59;5072622;28;20033;-57
2022/09/25 08:14:43;;;;;;;9.43;5.82;;;;;;;10.92;99.81;101521.84;5073063;28;20127;-58
2022/09/25 08:17:08;;;;;;;9.93;5.97;;;;;;;11.05;100.00;101525.97;5078767;28;20046;-59
2022/09/25 08:19:33;;;;;;;11.00;6.30;;;;;;;11.11;100.00;101520.91;5070695;28;20032;-57
2022/09/25 08:21:59;;;;;;;10.05;4.88;;;;;;;11.20;99.89;101524.47;5078209;28;20035;-58
2022/09/25 08:24:24;;;;;;;10.88;5.15;;;;;;;11.26;99.83;101517.75;5082282;28;20028;-58
2022/09/25 08:26:49;;;;;;;11.15;4.90;;;;;;;11.32;99.80;101522.47;5069877;28;20050;-57
2022/09/25 08:29:14;;;;;;;13.63;5.40;;;;;;;11.41;99.97;101515.44;5072229;28;20040;-57
2022/09/25 08:31:40;;;;;;;7.03;4.60;;;;;;;11.55;98.82;101519.38;5070584;28;20137;-57
2022/09/25 08:34:07;;;;;;;9.40;4.60;;;;;;;11.61;98.36;101510.81;5077712;28;20025;-56
2022/09/25 08:36:32;;;;;;;9.93;4.60;;;;;;;11.68;97.72;101522.50;5069424;28;20059;-57
2022/09/25 08:38:59;;;;;;;12.00;4.65;;;;;;;11.73;97.04;101523.88;5069722;28;20429;-56
2022/09/25 08:41:30;;;;;;;8.07;3.90;;;;;;;11.74;94.92;101520.22;5068227;28;20068;-58
2022/09/25 08:43:58;;;;;;;7.55;3.33;;;;;;;11.81;95.30;101522.13;5069007;28;20036;-60
2022/09/25 08:49:23;;;;;;;4.93;2.67;;;;;;;11.94;93.11;101532.34;5064365;28;20105;-59
2022/09/25 08:51:52;;;;;;;9.38;3.10;;;;;;;12.01;93.79;101526.41;5089908;28;20051;-60
2022/09/25 08:54:22;;;;;;;6.97;2.70;;;;;;;12.09;92.80;101535.31;5076038;28;20057;-58
2022/09/25 08:56:52;;;;;;;8.95;3.30;;;;;;;12.14;92.72;101529.53;5065922;28;20557;-61
2022/09/25 08:59:30;;;;;;;8.85;3.20;;;;;;;12.18;92.42;101527.44;5060400;28;20028;-58
2022/09/25 09:01:59;;;;;;;11.23;2.50;;;;;;;12.20;91.83;101528.91;5084005;28;20119;-61
2022/09/25 09:04:32;;;;;;;9.98;2.60;;;;;;;12.21;89.90;101517.31;5075680;28;20032;-57
2022/09/25 09:07:04;;;;;;;13.68;3.00;;;;;;;12.33;90.60;101525.84;5076528;28;20064;-60
2022/09/25 09:09:36;;;;;;;10.65;2.70;;;;;;;12.39;91.67;101532.38;5060925;28;20530;-58
2022/09/25 09:12:30;;;;;;;9.53;2.60;;;;;;;12.44;90.76;101521.28;5076029;28;20503;-61
2022/09/25 09:15:13;;;;;;;9.77;2.38;;;;;;;12.49;89.62;101518.97;5062932;28;20028;-59
2022/09/25 09:17:41;;;;;;;10.70;2.85;;;;;;;12.58;88.76;101517.19;5068619;28;20495;-61
2022/09/25 09:20:18;;;;;;;10.15;2.28;;;;;;;12.62;89.17;101514.06;5078126;28;20032;-61
2022/09/25 09:22:51;;;;;;;11.30;2.60;;;;;;;12.68;88.14;101512.56;5064984;28;20044;-60
2022/09/25 09:25:27;;;;;;;;;;;;;;;12.70;90.22;101510.59;5061154;28;20094;-58
2022/09/25 09:28:30;;;;;;;9.32;2.60;;;;;;;12.80;88.70;101515.81;5063780;28;20375;-58
2022/09/25 09:31:13;;;;;;;7.80;2.40;;;;;;;12.81;87.69;101516.63;5076410;28;20662;-58
2022/09/25 09:33:40;;;;;;;9.40;2.20;;;;;;;12.89;85.43;101511.34;5061569;28;20036;-58
2022/09/25 09:36:20;;;;;;;8.82;2.20;;;;;;;12.96;84.85;101514.19;5066393;28;20411;-58
2022/09/25 09:39:02;;;;;;;8.40;2.25;;;;;;;12.96;84.03;101512.38;5070455;28;20039;-57
2022/09/25 09:41:44;;;;;;;6.45;2.00;;;;;;;13.00;85.44;101511.06;5081341;28;20100;-58
2022/09/25 09:44:35;;;;;;;5.80;2.00;;;;;;;13.02;83.26;101514.38;5060873;28;20024;-59
2022/09/25 09:47:38;;;;;;;5.68;1.92;;;;;;;12.98;83.01;101507.72;5061648;28;20109;-60
2022/09/25 09:50:35;;;;;;;5.68;2.05;;;;;;;12.98;84.64;101507.72;5060650;28;20101;-59
2022/09/25 09:53:04;;;;;;;7.25;2.35;;;;;;;12.91;83.07;101506.69;5057094;28;20078;-59
2022/09/25 09:55:49;;;;;;;6.45;2.08;;;;;;;12.88;83.82;101501.69;5069363;28;20081;-59
2022/09/25 09:58:23;;;;;;;8.07;1.88;;;;;;;12.84;82.67;101506.50;5078754;28;20467;-59
2022/09/25 10:00:50;;;;;;;8.23;1.90;;;;;;;12.95;83.94;101500.06;5081421;28;20047;-59
2022/09/25 10:03:27;;;;;;;8.18;1.90;;;;;;;13.14;83.00;101503.44;5069616;28;20075;-59
2022/09/25 10:05:56;;;;;;;8.32;1.92;;;;;;;13.18;81.30;101486.97;5061470;28;20029;-58
2022/09/25 10:08:22;;;;;;;8.65;2.00;;;;;;;13.40;79.71;101499.81;5075281;28;20035;-61
2022/09/25 10:10:55;;;;;;;7.15;2.20;;;;;;;13.54;80.06;101493.91;5078246;28;20028;-60
2022/09/25 10:13:31;;;;;;;5.93;2.00;;;;;;;13.62;79.41;101501.03;5071913;28;20029;-60
2022/09/25 10:16:06;;;;;;;5.43;1.80;;;;;;;13.70;78.35;101490.41;5060365;28;20472;-58
2022/09/25 10:18:53;;;;;;;8.05;1.80;;;;;;;13.71;79.44;101493.88;5061277;28;20040;-57
2022/09/25 10:21:22;;;;;;;5.82;1.65;;;;;;;13.63;76.17;101499.22;5066709;28;20045;-58
2022/09/25 10:23:52;;;;;;;9.77;2.08;;;;;;;13.71;77.55;101488.56;5059152;28;20557;-57
2022/09/25 10:26:26;;;;;;;7.28;1.60;;;;;;;13.68;75.14;101492.38;5065564;28;20028;-60
2022/09/25 10:28:52;;;;;;;7.00;1.85;;;;;;;13.61;74.22;101494.06;5067501;28;20036;-59
2022/09/25 10:31:19;;;;;;;6.28;1.65;;;;;;;13.62;75.84;101497.56;5092740;28;20023;-59
2022/09/25 10:34:00;;;;;;;4.57;1.85;;;;;;;13.72;76.57;101485.72;5076506;28;20056;-59
2022/09/25 10:36:36;;;;;;;7.32;1.80;;;;;;;13.82;75.08;101477.56;5063191;28;20111;-59
2022/09/25 10:39:03;;;;;;;5.43;1.90;;;;;;;13.94;75.44;101477.22;5050207;28;20442;-59
2022/09/25 10:41:39;;;;;;;6.10;1.60;;;;;;;14.07;73.64;101479.38;5091679;28;20304;-60
2022/09/25 10:44:19;;;;;;;3.75;1.40;;;;;;;14.09;75.60;101483.56;5065313;28;20036;-58
2022/09/25 10:53:02;;;;;;;6.10;1.70;;;;;;;14.01;75.33;101488.88;5073768;28;20430;-60
2022/09/25 10:55:31;;;;;;;6.60;1.90;;;;;;;14.09;69.34;101478.22;5081492;28;20036;-59
2022/09/25 10:58:02;;;;;;;5.18;1.30;;;;;;;14.16;65.35;101483.69;5082618;28;20110;-59
2022/09/25 11:00:27;;;;;;;3.38;1.40;;;;;;;14.26;68.48;101472.84;5070147;28;20032;-59
2022/09/25 11:02:59;;;;;;;4.18;1.38;;;;;;;14.33;65.63;101479.19;5077560;28;20035;-59
2022/09/25 11:05:29;;;;;;;4.45;1.60;;;;;;;14.42;67.35;101476.47;5075609;28;20115;-58
2022/09/25 11:07:58;;;;;;;3.80;1.45;;;;;;;14.55;68.22;101474.09;5068015;28;20036;-58
2022/09/25 11:10:28;;;;;;;3.38;1.48;;;;;;;14.63;68.51;101479.41;5079925;28;20032;-60
2022/09/25 11:12:55;;;;;;;4.93;1.65;;;;;;;14.59;66.87;101482.56;5082187;28;20036;-61
2022/09/25 11:15:24;;;;;;;8.73;1.70;;;;;;;14.48;68.61;101479.31;5064538;28;20036;-61
2022/09/25 11:17:53;;;;;;;5.38;1.85;;;;;;;14.24;67.35;101473.03;5081165;28;20040;-59
2022/09/25 11:20:31;;;;;;;4.22;1.65;;;;;;;14.08;67.42;101475.72;5073976;28;20070;-57
2022/09/25 11:23:32;;;;;;;5.38;1.60;;;;;;;14.21;71.20;101480.53;5062461;28;20028;-57
2022/09/25 11:26:13;;;;;;;3.80;1.42;;;;;;;14.39;66.59;101478.50;5066947;28;20048;-58
2022/09/25 11:28:49;;;;;;;5.07;1.63;;;;;;;14.66;68.69;101476.38;5075318;28;20408;-58
2022/09/25 11:31:36;;;;;;;3.75;1.42;;;;;;;14.87;65.54;101467.00;5090283;28;20490;-58
2022/09/25 11:34:07;;;;;;;8.52;1.83;;;;;;;15.11;66.17;101459.84;5071068;28;20487;-58
2022/09/25 11:36:37;;;;;;;6.68;1.90;;;;;;;15.25;66.83;101466.25;5063515;28;20037;-58
2022/09/25 11:42:13;;;;;;;3.60;1.60;;;;;;;15.02;66.88;101463.56;5083050;28;20150;-60
2022/09/25 11:44:46;;;;;;;3.35;1.52;;;;;;;14.85;67.19;101463.66;5063137;28;20343;-59
2022/09/25 11:47:14;;;;;;;;;;;;;;;14.93;68.43;101457.44;5063324;28;20054;-59
2022/09/25 11:49:41;;;;;;;3.67;1.30;;;;;;;14.95;62.29;101459.94;5062991;28;19923;-58
2022/09/25 11:52:06;;;;;;;4.45;1.42;;;;;;;15.05;62.86;101457.88;5078851;28;20393;-57
2022/09/25 11:55:02;;;;;;;3.60;1.35;;;;;;;15.13;63.42;101452.50;5076001;28;20037;-57
2022/09/25 11:57:36;;;;;;;6.55;1.75;;;;;;;15.23;62.89;101435.38;5062458;28;20029;-58
2022/09/25 12:00:18;;;;;;;5.35;1.50;;;;;;;15.34;59.53;101437.63;5075425;28;20035;-58